createdAt,value
2023-05-24T16:53:51.351Z,21.80
2023-05-24T16:56:18.044Z,21.79
2023-05-24T16:58:44.726Z,21.82
2023-05-24T17:01:11.687Z,21.88
2023-05-24T17:03:38.598Z,21.89
2023-05-24T17:06:05.496Z,21.89
2023-05-24T17:08:35.334Z,21.89
2023-05-24T17:11:06.472Z,21.88
2023-05-24T17:13:33.483Z,21.90
2023-05-24T17:16:00.594Z,21.88
2023-05-24T17:18:30.309Z,21.85
2023-05-24T17:21:06.996Z,21.84
2023-05-24T17:23:36.717Z,21.79
2023-05-24T17:26:04.413Z,21.74
2023-05-24T17:28:31.338Z,21.72
2023-05-24T17:30:59.729Z,21.66
2023-05-24T17:33:28.834Z,21.61
2023-05-24T17:35:56.745Z,21.57
2023-05-24T17:38:26.828Z,21.49
2023-05-24T17:40:57.092Z,21.42
2023-05-24T17:43:25.134Z,21.36
2023-05-24T17:45:53.858Z,21.21
2023-05-24T17:48:20.502Z,21.16
2023-05-24T17:50:47.149Z,21.12
2023-05-24T17:53:30.433Z,21.08
2023-05-24T17:55:58.345Z,20.99
2023-05-24T17:58:25.782Z,20.93
2023-05-24T18:00:52.979Z,20.90
2023-05-24T18:03:22.038Z,20.87
2023-05-24T18:05:48.704Z,20.86
2023-05-24T18:08:15.549Z,20.80
2023-05-24T18:10:42.419Z,20.77
2023-05-24T18:13:09.560Z,20.69
2023-05-24T18:15:36.746Z,20.64
2023-05-24T18:18:03.683Z,20.59
2023-05-24T18:20:31.244Z,20.56
2023-05-24T18:22:57.996Z,20.54
2023-05-24T18:25:24.722Z,20.51
2023-05-24T18:27:51.772Z,20.44
2023-05-24T18:30:18.606Z,20.38
2023-05-24T18:33:02.731Z,20.34
2023-05-24T18:35:34.879Z,20.32
2023-05-24T18:38:01.713Z,20.30
2023-05-24T18:40:28.471Z,20.31
2023-05-24T18:43:05.529Z,20.34
2023-05-24T18:45:32.182Z,20.34
2023-05-24T18:47:59.017Z,20.34
2023-05-24T18:50:26.565Z,20.32
2023-05-24T18:52:54.304Z,20.34
2023-05-24T18:55:20.927Z,20.35
2023-05-24T18:57:47.919Z,20.33
2023-05-24T19:00:15.581Z,20.26
2023-05-24T19:02:42.440Z,20.25
2023-05-24T19:05:09.390Z,20.27
2023-05-24T19:07:36.935Z,20.25
2023-05-24T19:10:04.175Z,20.19
2023-05-24T19:12:34.898Z,20.17
2023-05-24T19:15:02.955Z,20.14
2023-05-24T19:17:29.694Z,20.12
2023-05-24T19:19:56.449Z,20.07
2023-05-24T19:22:23.102Z,19.99
2023-05-24T19:24:49.707Z,19.89
2023-05-24T19:27:17.191Z,19.84
2023-05-24T19:29:43.823Z,19.75
2023-05-24T19:32:11.591Z,19.74
2023-05-24T19:34:42.504Z,19.73
2023-05-24T19:37:09.693Z,19.71
2023-05-24T19:39:37.350Z,19.65
2023-05-24T19:42:05.028Z,19.58
2023-05-24T19:44:31.636Z,19.45
2023-05-24T19:46:58.265Z,19.39
2023-05-24T19:49:24.904Z,19.31
2023-05-24T19:51:52.436Z,19.22
2023-05-24T19:54:19.110Z,19.13
2023-05-24T19:56:50.883Z,19.03
2023-05-24T19:59:20.222Z,18.94
2023-05-24T20:01:49.457Z,18.86
2023-05-24T20:04:17.076Z,18.79
2023-05-24T20:06:43.837Z,18.72
2023-05-24T20:09:10.665Z,18.63
2023-05-24T20:11:38.014Z,18.60
2023-05-24T20:14:04.657Z,18.59
2023-05-24T20:16:31.569Z,18.57
2023-05-24T20:18:58.378Z,18.59
2023-05-24T20:21:25.104Z,18.56
2023-05-24T20:23:57.689Z,18.54
2023-05-24T20:26:26.120Z,18.45
2023-05-24T20:28:52.951Z,18.37
2023-05-24T20:31:19.899Z,18.31
2023-05-24T20:33:47.075Z,18.28
2023-05-24T20:36:15.215Z,18.22
2023-05-24T20:38:42.097Z,18.20
2023-05-24T20:41:08.884Z,18.20
2023-05-24T20:43:35.592Z,18.18
2023-05-24T20:46:02.324Z,18.16
2023-05-24T20:48:30.829Z,18.12
2023-05-24T20:50:57.666Z,18.07
2023-05-24T20:53:26.282Z,18.04
2023-05-24T20:55:54.857Z,18.00
2023-05-24T20:58:21.729Z,18.01
2023-05-24T21:00:48.706Z,18.04
2023-05-24T21:03:16.453Z,18.06
2023-05-24T21:05:43.407Z,18.09
2023-05-24T21:08:10.509Z,18.05
2023-05-24T21:10:39.164Z,18.04
2023-05-24T21:13:05.948Z,18.03
2023-05-24T21:15:32.630Z,18.09
2023-05-24T21:18:00.122Z,18.18
2023-05-24T21:20:26.991Z,18.30
2023-05-24T21:22:53.712Z,18.39
2023-05-24T21:25:20.595Z,18.34
2023-05-24T21:27:47.839Z,17.85
2023-05-24T21:30:14.705Z,17.56
2023-05-24T21:32:41.374Z,17.43
2023-05-24T21:35:08.391Z,17.40
2023-05-24T21:37:35.030Z,17.38
2023-05-24T21:40:02.482Z,17.37
2023-05-24T21:42:29.154Z,17.26
2023-05-24T21:44:55.806Z,17.21
2023-05-24T21:47:22.528Z,17.14
2023-05-24T21:49:50.957Z,17.15
2023-05-24T21:52:19.623Z,17.15
2023-05-24T21:54:47.204Z,17.18
2023-05-24T21:57:13.856Z,17.23
2023-05-24T21:59:40.533Z,17.25
2023-05-24T22:02:07.221Z,17.27
2023-05-24T22:04:33.947Z,17.26
2023-05-24T22:07:00.724Z,17.23
2023-05-24T22:09:28.248Z,17.26
2023-05-24T22:11:54.848Z,17.25
2023-05-24T22:14:21.459Z,17.27
2023-05-24T22:16:49.069Z,17.31
2023-05-24T22:19:38.909Z,17.33
2023-05-24T22:22:10.510Z,17.37
2023-05-24T22:24:37.384Z,17.38
2023-05-24T22:27:04.752Z,17.39
2023-05-24T22:29:32.244Z,17.40
2023-05-24T22:31:58.973Z,17.41
2023-05-24T22:34:27.657Z,17.42
2023-05-24T22:36:56.863Z,17.43
2023-05-24T22:39:24.138Z,17.40
2023-05-24T22:41:52.112Z,17.39
2023-05-24T22:44:18.878Z,17.37
2023-05-24T22:46:50.122Z,17.34
2023-05-24T22:49:20.330Z,17.33
2023-05-24T22:51:53.492Z,17.32
2023-05-24T22:54:20.416Z,17.35
2023-05-24T22:56:47.980Z,17.36
2023-05-24T22:59:14.724Z,17.36
2023-05-24T23:01:41.543Z,17.35
2023-05-24T23:04:20.761Z,17.33
2023-05-24T23:06:49.050Z,17.33
2023-05-24T23:09:18.403Z,17.35
2023-05-24T23:11:46.210Z,17.32
2023-05-24T23:14:14.398Z,17.38
2023-05-24T23:16:46.145Z,17.37
2023-05-24T23:19:18.718Z,17.38
2023-05-24T23:21:47.105Z,17.38
2023-05-24T23:24:16.036Z,17.37
2023-05-24T23:26:43.609Z,17.34
2023-05-24T23:29:11.370Z,17.32
2023-05-24T23:31:38.269Z,17.27
2023-05-24T23:34:05.725Z,17.23
2023-05-24T23:36:33.304Z,17.23
2023-05-24T23:39:00.192Z,17.23
2023-05-24T23:41:27.432Z,17.23
2023-05-24T23:43:54.217Z,17.24
2023-05-24T23:46:20.949Z,17.25
2023-05-24T23:48:47.734Z,17.24
2023-05-24T23:51:15.460Z,17.24
2023-05-24T23:53:43.024Z,17.23
2023-05-24T23:56:09.719Z,17.21
2023-05-24T23:58:37.847Z,17.21
